createdAt,value
2023-03-12T00:01:22.835Z,6.70
2023-03-12T00:03:50.302Z,6.50
2023-03-12T00:06:18.638Z,6.60
2023-03-12T00:08:45.384Z,6.70
2023-03-12T00:11:15.083Z,6.60
2023-03-12T00:13:42.252Z,6.70
2023-03-12T00:16:14.344Z,6.80
2023-03-12T00:18:41.990Z,6.80
2023-03-12T00:21:09.154Z,6.90
2023-03-12T00:23:36.384Z,6.70
2023-03-12T00:26:11.889Z,6.50
2023-03-12T00:28:39.741Z,6.80
2023-03-12T00:31:17.229Z,6.80
2023-03-12T00:33:44.287Z,6.80
2023-03-12T00:36:11.237Z,7.00
2023-03-12T00:38:38.026Z,7.20
2023-03-12T00:41:04.878Z,7.30
2023-03-12T00:43:31.774Z,7.20
2023-03-12T00:45:58.529Z,7.30
2023-03-12T00:48:25.363Z,7.20
2023-03-12T00:50:52.358Z,7.30
2023-03-12T00:53:19.184Z,7.30
2023-03-12T00:55:46.080Z,7.20
2023-03-12T00:58:12.944Z,7.10
2023-03-12T01:00:39.686Z,7.40
2023-03-12T01:03:06.528Z,7.60
2023-03-12T01:05:37.675Z,7.50
2023-03-12T01:08:05.461Z,7.00
2023-03-12T01:10:32.312Z,7.40
2023-03-12T01:12:59.547Z,7.60
2023-03-12T01:15:26.506Z,7.80
2023-03-12T01:17:53.189Z,7.60
2023-03-12T01:20:20.072Z,7.70
2023-03-12T01:22:46.766Z,7.80
2023-03-12T01:25:13.729Z,7.90
2023-03-12T01:27:40.437Z,8.00
2023-03-12T01:30:07.809Z,7.80
2023-03-12T01:32:34.635Z,8.00
2023-03-12T01:35:01.529Z,8.10
2023-03-12T01:37:28.516Z,8.10
2023-03-12T01:39:55.314Z,8.00
2023-03-12T01:42:22.154Z,8.00
2023-03-12T01:44:54.981Z,7.90
2023-03-12T01:47:21.929Z,8.10
2023-03-12T01:49:50.957Z,8.10
2023-03-12T01:52:21.223Z,8.10
2023-03-12T01:55:03.315Z,7.90
2023-03-12T01:57:50.667Z,8.10
2023-03-12T02:00:21.636Z,8.30
2023-03-12T02:02:49.619Z,8.50
2023-03-12T02:05:28.859Z,8.30
2023-03-12T02:07:57.261Z,8.30
2023-03-12T02:10:25.233Z,8.40
2023-03-12T02:12:52.727Z,8.50
2023-03-12T02:15:19.858Z,8.70
2023-03-12T02:17:46.743Z,8.60
2023-03-12T02:20:21.458Z,8.50
2023-03-12T02:22:55.974Z,8.60
2023-03-12T02:25:37.388Z,8.60
2023-03-12T02:28:08.569Z,8.80
2023-03-12T02:30:36.685Z,8.80
2023-03-12T02:33:07.852Z,8.90
2023-03-12T02:35:35.541Z,8.90
2023-03-12T02:38:03.377Z,8.80
2023-03-12T02:40:44.219Z,8.60
2023-03-12T02:43:11.452Z,9.00
2023-03-12T02:45:38.963Z,8.80
2023-03-12T02:48:09.074Z,8.80
2023-03-12T02:50:35.931Z,8.90
2023-03-12T02:53:02.623Z,9.00
2023-03-12T02:55:29.315Z,9.00
2023-03-12T02:57:56.072Z,8.90
2023-03-12T03:00:22.918Z,8.80
2023-03-12T03:02:50.020Z,8.80
2023-03-12T03:05:16.959Z,8.90
2023-03-12T03:07:43.771Z,8.80
2023-03-12T03:10:11.104Z,8.80
2023-03-12T03:12:37.965Z,8.80
2023-03-12T03:15:05.542Z,9.00
2023-03-12T03:17:32.315Z,8.90
2023-03-12T03:19:59.078Z,8.80
2023-03-12T03:22:25.838Z,8.70
2023-03-12T03:24:53.935Z,8.80
2023-03-12T03:27:20.778Z,8.80
2023-03-12T03:29:47.518Z,8.70
2023-03-12T03:32:14.421Z,8.80
2023-03-12T03:34:41.172Z,8.90
2023-03-12T03:37:08.299Z,8.70
2023-03-12T03:39:35.055Z,8.80
2023-03-12T03:42:01.758Z,8.90
2023-03-12T03:44:28.627Z,8.80
2023-03-12T03:46:55.464Z,8.80
2023-03-12T03:49:23.196Z,8.80
2023-03-12T03:51:51.801Z,8.60
2023-03-12T03:54:19.221Z,8.60
2023-03-12T03:56:46.153Z,8.70
2023-03-12T03:59:12.951Z,8.70
2023-03-12T04:01:39.902Z,8.60
2023-03-12T04:04:06.620Z,8.60
2023-03-12T04:06:33.914Z,8.40
2023-03-12T04:09:00.814Z,8.40
2023-03-12T04:11:28.125Z,8.50
2023-03-12T04:13:54.876Z,8.60
2023-03-12T04:16:21.630Z,8.60
2023-03-12T04:18:48.385Z,8.50
2023-03-12T04:21:15.439Z,8.40
2023-03-12T04:23:42.294Z,8.40
2023-03-12T04:26:09.534Z,8.40
2023-03-12T04:28:37.085Z,8.40
2023-03-12T04:31:06.589Z,8.50
2023-03-12T04:33:36.538Z,8.50
2023-03-12T04:36:03.922Z,8.50
2023-03-12T04:38:31.122Z,8.40
2023-03-12T04:41:07.432Z,8.50
2023-03-12T04:43:35.059Z,8.40
2023-03-12T04:46:02.691Z,8.50
2023-03-12T04:48:29.557Z,8.50
2023-03-12T04:50:56.495Z,8.20
2023-03-12T04:53:24.149Z,8.20
2023-03-12T04:55:51.624Z,8.10
2023-03-12T04:58:19.461Z,8.20
2023-03-12T05:00:47.784Z,8.20
2023-03-12T05:03:14.978Z,8.10
2023-03-12T05:05:41.781Z,8.30
2023-03-12T05:08:08.571Z,8.10
2023-03-12T05:10:35.883Z,8.20
2023-03-12T05:13:02.655Z,8.20
2023-03-12T05:15:29.357Z,8.00
2023-03-12T05:17:56.222Z,8.10
2023-03-12T05:20:23.005Z,8.10
2023-03-12T05:22:49.720Z,8.10
2023-03-12T05:25:16.525Z,8.00
2023-03-12T05:27:43.405Z,8.10
2023-03-12T05:30:10.830Z,8.30
2023-03-12T05:32:38.702Z,8.20
2023-03-12T05:35:05.881Z,8.20
2023-03-12T05:37:32.627Z,8.30
2023-03-12T05:40:00.662Z,8.30
2023-03-12T05:42:27.510Z,8.30
2023-03-12T05:44:54.297Z,8.30
2023-03-12T05:47:21.592Z,8.30
2023-03-12T05:49:48.331Z,8.40
2023-03-12T05:52:15.142Z,8.50
2023-03-12T05:54:41.876Z,8.50
2023-03-12T05:57:08.713Z,8.50
2023-03-12T05:59:35.751Z,8.50
2023-03-12T06:02:02.755Z,8.50
2023-03-12T06:04:29.784Z,8.40
2023-03-12T06:06:56.570Z,8.60
2023-03-12T06:09:23.431Z,8.70
2023-03-12T06:11:50.192Z,8.60
2023-03-12T06:14:17.125Z,8.80
2023-03-12T06:16:44.144Z,8.70
2023-03-12T06:19:14.124Z,8.70
2023-03-12T06:21:42.934Z,8.20
2023-03-12T06:24:10.475Z,8.90
2023-03-12T06:26:37.374Z,8.80
2023-03-12T06:29:04.283Z,8.60
2023-03-12T06:31:31.120Z,8.70
2023-03-12T06:33:58.054Z,8.70
2023-03-12T06:36:25.495Z,8.80
2023-03-12T06:38:52.279Z,8.60
2023-03-12T06:41:21.025Z,8.80
2023-03-12T06:43:48.530Z,8.70
2023-03-12T06:46:17.829Z,8.80
2023-03-12T06:48:46.520Z,8.80
2023-03-12T06:51:15.963Z,8.90
2023-03-12T06:53:43.005Z,8.90
2023-03-12T06:56:10.924Z,9.00
2023-03-12T06:58:38.021Z,9.00
2023-03-12T07:01:05.458Z,9.10
2023-03-12T07:03:32.871Z,9.10
2023-03-12T07:06:00.320Z,9.20
2023-03-12T07:08:31.436Z,9.30
2023-03-12T07:11:01.816Z,9.30
2023-03-12T07:13:29.169Z,9.20
2023-03-12T07:15:55.990Z,9.60
2023-03-12T07:18:22.861Z,9.30
2023-03-12T07:20:49.646Z,9.30
2023-03-12T07:23:16.618Z,9.30
2023-03-12T07:25:44.326Z,9.30
2023-03-12T07:28:12.393Z,9.30
2023-03-12T07:30:39.865Z,9.40
2023-03-12T07:33:12.059Z,9.40
2023-03-12T07:35:39.990Z,9.30
2023-03-12T07:38:07.683Z,9.40
2023-03-12T07:40:35.237Z,9.30
2023-03-12T07:43:06.726Z,9.30
2023-03-12T07:45:33.488Z,9.50
2023-03-12T07:48:00.236Z,9.50
2023-03-12T07:50:27.151Z,9.60
2023-03-12T07:52:53.897Z,9.60
2023-03-12T07:55:20.772Z,9.10
2023-03-12T07:57:47.624Z,9.60
2023-03-12T08:00:15.371Z,9.60
2023-03-12T08:02:42.332Z,9.60
2023-03-12T08:05:09.713Z,9.80
2023-03-12T08:07:36.662Z,10.00
2023-03-12T08:10:06.798Z,10.00
2023-03-12T08:12:33.957Z,9.90
2023-03-12T08:15:01.038Z,9.80
2023-03-12T08:17:29.056Z,9.80
2023-03-12T08:19:57.511Z,9.90
2023-03-12T08:22:24.283Z,9.90
2023-03-12T08:24:51.120Z,9.90
2023-03-12T08:27:17.867Z,10.00
2023-03-12T08:29:44.617Z,10.10
2023-03-12T08:32:11.340Z,10.00
2023-03-12T08:34:38.487Z,10.20
2023-03-12T08:37:06.018Z,10.20
2023-03-12T08:39:33.550Z,10.00
2023-03-12T08:42:00.939Z,10.10
2023-03-12T08:44:27.725Z,10.00
2023-03-12T08:46:54.607Z,10.20
2023-03-12T08:49:22.099Z,10.20
2023-03-12T08:51:49.206Z,10.20
2023-03-12T08:54:15.931Z,10.30
2023-03-12T08:56:43.665Z,10.60
2023-03-12T08:59:13.824Z,10.50
2023-03-12T09:01:43.604Z,10.50
2023-03-12T09:04:11.038Z,10.30
2023-03-12T09:06:38.552Z,10.40
2023-03-12T09:09:05.945Z,10.30
2023-03-12T09:11:34.304Z,10.40
2023-03-12T09:14:39.463Z,10.40
2023-03-12T09:16:49.530Z,10.40
2023-03-12T09:19:16.662Z,10.50
2023-03-12T09:21:43.562Z,10.60
2023-03-12T09:24:11.352Z,10.00
2023-03-12T09:26:38.077Z,10.30
2023-03-12T09:29:04.918Z,10.40
2023-03-12T09:31:32.637Z,10.60
2023-03-12T09:33:59.397Z,10.60
2023-03-12T09:36:26.179Z,10.50
2023-03-12T09:38:52.930Z,10.50
2023-03-12T09:41:32.091Z,10.50
2023-03-12T09:44:10.770Z,10.50
2023-03-12T09:46:51.211Z,10.90
2023-03-12T09:49:26.631Z,10.70
2023-03-12T09:51:56.862Z,10.60
2023-03-12T09:54:58.641Z,10.80
2023-03-12T09:57:27.530Z,11.10
2023-03-12T09:59:54.396Z,11.20
2023-03-12T10:02:35.926Z,11.20
2023-03-12T10:05:12.011Z,11.20
2023-03-12T10:07:48.520Z,11.30
2023-03-12T10:10:35.170Z,11.40
2023-03-12T10:13:35.881Z,11.60
2023-03-12T10:16:16.575Z,11.50
2023-03-12T10:18:58.904Z,11.80
2023-03-12T10:21:37.660Z,11.60
2023-03-12T10:24:13.573Z,11.70
2023-03-12T10:26:45.775Z,11.70
2023-03-12T10:29:26.733Z,11.70
2023-03-12T10:32:11.574Z,11.80
2023-03-12T10:34:45.757Z,11.80
2023-03-12T10:37:37.197Z,11.80
2023-03-12T10:40:05.983Z,12.20
2023-03-12T10:42:33.264Z,12.40
2023-03-12T10:45:16.304Z,12.60
2023-03-12T10:47:48.623Z,12.60
2023-03-12T10:50:20.031Z,12.60
2023-03-12T10:52:48.783Z,13.00
2023-03-12T10:55:30.082Z,13.10
2023-03-12T10:57:57.953Z,12.80
2023-03-12T11:00:30.320Z,13.00
2023-03-12T11:03:03.793Z,13.10
2023-03-12T11:05:31.917Z,13.30
2023-03-12T11:08:01.680Z,13.20
2023-03-12T11:10:45.756Z,13.30
2023-03-12T11:13:39.904Z,13.30
2023-03-12T11:16:19.438Z,13.50
2023-03-12T11:19:04.091Z,13.30
2023-03-12T11:21:33.506Z,13.30
2023-03-12T11:24:00.186Z,13.30
2023-03-12T11:26:45.847Z,13.80
2023-03-12T11:29:23.919Z,14.00
2023-03-12T11:32:14.933Z,13.70
2023-03-12T11:34:42.453Z,13.60
2023-03-12T11:37:14.788Z,13.70
2023-03-12T11:40:09.843Z,13.50
2023-03-12T11:42:54.628Z,13.50
2023-03-12T11:45:31.514Z,13.50
2023-03-12T11:48:04.260Z,13.70
2023-03-12T11:51:00.521Z,14.20
2023-03-12T11:53:36.484Z,14.30
2023-03-12T11:56:18.596Z,14.50
2023-03-12T11:59:12.921Z,14.70
2023-03-12T12:01:55.010Z,14.90
2023-03-12T12:04:53.958Z,14.60
2023-03-12T12:07:39.433Z,14.50
2023-03-12T12:10:24.822Z,13.90
2023-03-12T12:13:13.212Z,13.60
2023-03-12T12:16:08.964Z,13.70
2023-03-12T12:19:04.391Z,14.00
2023-03-12T12:21:31.247Z,13.90
2023-03-12T12:24:18.254Z,14.10
2023-03-12T12:26:57.321Z,14.00
2023-03-12T12:29:59.616Z,13.90
2023-03-12T12:32:32.928Z,14.30
2023-03-12T12:35:29.042Z,14.40
2023-03-12T12:38:00.005Z,14.40
2023-03-12T12:40:34.450Z,14.10
2023-03-12T12:43:19.807Z,14.00
2023-03-12T12:45:50.901Z,14.30
2023-03-12T12:48:28.749Z,14.30
2023-03-12T12:51:00.055Z,14.20
2023-03-12T12:53:35.693Z,14.10
2023-03-12T12:56:20.196Z,14.10
2023-03-12T12:59:08.514Z,13.90
2023-03-12T13:01:36.758Z,14.10
2023-03-12T13:04:12.054Z,14.00
2023-03-12T13:06:54.069Z,14.00
2023-03-12T13:09:23.806Z,13.60
2023-03-12T13:11:51.735Z,13.50
2023-03-12T13:14:35.593Z,13.40
2023-03-12T13:17:19.751Z,13.40
2023-03-12T13:19:55.541Z,13.50
2023-03-12T13:22:40.345Z,13.70
2023-03-12T13:25:26.582Z,13.60
2023-03-12T13:28:32.421Z,13.30
2023-03-12T13:31:20.069Z,13.30
2023-03-12T13:33:51.631Z,13.30
2023-03-12T13:36:23.457Z,13.60
2023-03-12T13:39:07.592Z,13.70
2023-03-12T13:41:40.148Z,13.90
2023-03-12T13:44:37.182Z,13.80
2023-03-12T13:47:28.452Z,13.80
2023-03-12T13:49:58.518Z,13.80
2023-03-12T13:52:40.504Z,13.80
2023-03-12T13:55:27.355Z,13.80
2023-03-12T13:57:55.962Z,13.90
2023-03-12T14:00:30.925Z,14.00
2023-03-12T14:03:17.366Z,14.00
2023-03-12T14:05:51.792Z,14.10
2023-03-12T14:08:51.604Z,14.10
2023-03-12T14:11:42.839Z,14.30
2023-03-12T14:14:24.565Z,14.20
2023-03-12T14:16:57.409Z,14.30
2023-03-12T14:19:27.096Z,14.40
2023-03-12T14:21:56.174Z,14.00
2023-03-12T14:24:29.532Z,13.90
2023-03-12T14:26:57.987Z,13.80
2023-03-12T14:29:39.957Z,13.70
2023-03-12T14:32:19.030Z,13.70
2023-03-12T14:34:49.853Z,13.80
2023-03-12T14:37:22.342Z,14.00
2023-03-12T14:39:59.378Z,14.10
2023-03-12T14:42:34.970Z,14.00
2023-03-12T14:45:17.996Z,14.20
2023-03-12T14:47:47.421Z,14.40
2023-03-12T14:50:23.617Z,14.70
2023-03-12T14:52:51.087Z,14.70
2023-03-12T14:55:23.046Z,14.70
2023-03-12T14:58:02.421Z,14.50
2023-03-12T15:00:29.558Z,14.50
2023-03-12T15:02:59.143Z,14.40
2023-03-12T15:05:26.840Z,14.20
2023-03-12T15:08:01.401Z,14.30
2023-03-12T15:10:29.570Z,14.50
2023-03-12T15:12:59.148Z,14.40
2023-03-12T15:15:28.817Z,14.00
2023-03-12T15:17:56.561Z,13.80
2023-03-12T15:20:25.665Z,13.70
2023-03-12T15:22:53.563Z,13.70
2023-03-12T15:25:25.113Z,13.60
2023-03-12T15:28:08.222Z,13.60
2023-03-12T15:30:36.383Z,13.70
2023-03-12T15:33:09.005Z,13.60
2023-03-12T15:35:39.068Z,13.70
2023-03-12T15:38:13.448Z,13.70
2023-03-12T15:40:40.428Z,13.80
2023-03-12T15:43:18.152Z,13.80
2023-03-12T15:45:45.126Z,13.80
2023-03-12T15:48:26.570Z,13.90
2023-03-12T15:50:53.454Z,14.20
2023-03-12T15:53:20.322Z,14.10
2023-03-12T15:56:06.543Z,14.00
2023-03-12T15:58:36.307Z,13.80
2023-03-12T16:01:17.487Z,13.90
2023-03-12T16:03:45.630Z,13.80
2023-03-12T16:06:17.739Z,13.80
2023-03-12T16:09:00.136Z,13.70
2023-03-12T16:11:32.657Z,13.40
2023-03-12T16:14:22.622Z,13.50
2023-03-12T16:16:49.569Z,13.50
2023-03-12T16:19:19.117Z,13.40
2023-03-12T16:21:46.066Z,13.20
2023-03-12T16:24:12.865Z,13.00
2023-03-12T16:27:00.159Z,12.90
2023-03-12T16:29:35.624Z,12.90
2023-03-12T16:32:09.399Z,12.90
2023-03-12T16:34:36.217Z,13.20
2023-03-12T16:37:03.315Z,13.00
2023-03-12T16:39:33.219Z,13.10
2023-03-12T16:42:05.738Z,13.10
2023-03-12T16:44:34.998Z,13.00
2023-03-12T16:47:02.244Z,12.90
2023-03-12T16:49:29.253Z,12.90
2023-03-12T16:51:55.977Z,12.80
2023-03-12T16:54:22.989Z,12.70
2023-03-12T16:56:51.010Z,12.60
2023-03-12T16:59:32.077Z,12.50
2023-03-12T17:01:58.895Z,12.70
2023-03-12T17:04:25.830Z,12.50
2023-03-12T17:06:52.614Z,12.30
2023-03-12T17:09:19.407Z,12.30
2023-03-12T17:11:46.753Z,12.40
2023-03-12T17:14:22.349Z,12.30
2023-03-12T17:16:49.654Z,12.40
2023-03-12T17:19:17.040Z,12.20
2023-03-12T17:21:44.281Z,12.20
2023-03-12T17:24:14.061Z,12.30
2023-03-12T17:26:42.950Z,12.30
2023-03-12T17:29:09.741Z,12.30
2023-03-12T17:31:37.625Z,12.20
2023-03-12T17:34:04.659Z,12.40
2023-03-12T17:36:31.575Z,12.30
2023-03-12T17:38:58.871Z,12.20
2023-03-12T17:41:27.302Z,12.20
2023-03-12T17:43:58.564Z,12.20
2023-03-12T17:46:25.446Z,12.20
2023-03-12T17:48:52.637Z,12.10
2023-03-12T17:51:20.994Z,12.30
2023-03-12T17:53:48.212Z,12.20
2023-03-12T17:56:17.903Z,12.20
2023-03-12T17:58:45.619Z,12.30
2023-03-12T18:01:13.587Z,12.30
2023-03-12T18:03:40.502Z,12.30
2023-03-12T18:06:07.759Z,12.20
2023-03-12T18:08:34.555Z,12.40
2023-03-12T18:11:02.925Z,12.30
2023-03-12T18:13:30.392Z,12.10
2023-03-12T18:15:58.468Z,12.10
2023-03-12T18:18:27.311Z,11.90
2023-03-12T18:20:54.156Z,12.00
2023-03-12T18:23:21.125Z,12.10
2023-03-12T18:25:47.915Z,12.10
2023-03-12T18:28:15.312Z,12.20
2023-03-12T18:30:42.222Z,12.30
2023-03-12T18:33:08.957Z,12.20
2023-03-12T18:35:35.936Z,12.40
2023-03-12T18:38:02.879Z,12.40
2023-03-12T18:40:30.133Z,12.20
2023-03-12T18:43:00.986Z,12.30
2023-03-12T18:45:28.482Z,12.30
2023-03-12T18:47:55.515Z,12.00
2023-03-12T18:50:22.333Z,12.10
2023-03-12T18:52:49.303Z,11.90
2023-03-12T18:55:16.235Z,11.70
2023-03-12T18:57:43.979Z,11.70
2023-03-12T19:00:14.469Z,11.80
2023-03-12T19:02:42.302Z,11.70
2023-03-12T19:05:11.007Z,11.90
2023-03-12T19:07:39.181Z,11.70
2023-03-12T19:10:07.837Z,11.80
2023-03-12T19:12:45.381Z,11.70
2023-03-12T19:15:15.976Z,11.60
2023-03-12T19:17:42.803Z,11.60
2023-03-12T19:20:10.369Z,11.50
2023-03-12T19:22:37.244Z,11.50
2023-03-12T19:25:04.273Z,11.40
2023-03-12T19:27:31.122Z,11.30
2023-03-12T19:29:57.883Z,11.20
2023-03-12T19:32:27.725Z,11.40
2023-03-12T19:35:00.167Z,11.40
2023-03-12T19:37:26.881Z,11.60
2023-03-12T19:39:53.618Z,11.70
2023-03-12T19:42:20.401Z,11.60
2023-03-12T19:44:49.268Z,11.40
2023-03-12T19:47:18.382Z,11.60
2023-03-12T19:49:45.165Z,11.40
2023-03-12T19:52:11.913Z,11.20
2023-03-12T19:54:38.874Z,11.10
2023-03-12T19:57:05.628Z,11.00
2023-03-12T19:59:32.590Z,11.10
2023-03-12T20:02:01.635Z,11.30
2023-03-12T20:04:28.834Z,11.40
2023-03-12T20:06:55.699Z,11.40
2023-03-12T20:09:22.398Z,11.30
2023-03-12T20:11:49.586Z,11.30
2023-03-12T20:14:16.421Z,11.30
2023-03-12T20:16:43.239Z,11.30
2023-03-12T20:19:10.159Z,11.50
2023-03-12T20:21:37.048Z,11.50
2023-03-12T20:24:05.190Z,11.40
2023-03-12T20:26:32.396Z,11.30
2023-03-12T20:29:05.999Z,11.40
2023-03-12T20:31:33.758Z,11.30
2023-03-12T20:34:00.507Z,11.50
2023-03-12T20:36:27.327Z,11.40
2023-03-12T20:38:54.132Z,11.40
2023-03-12T20:41:21.483Z,11.40
2023-03-12T20:43:48.411Z,11.50
2023-03-12T20:46:15.434Z,11.60
2023-03-12T20:48:42.337Z,11.50
2023-03-12T20:51:09.606Z,11.50
2023-03-12T20:53:36.353Z,11.50
2023-03-12T20:56:06.565Z,11.40
2023-03-12T20:58:33.772Z,11.50
2023-03-12T21:01:01.750Z,11.80
2023-03-12T21:03:29.266Z,11.60
2023-03-12T21:05:58.481Z,11.50
2023-03-12T21:08:25.901Z,11.50
2023-03-12T21:10:54.287Z,11.50
2023-03-12T21:13:23.246Z,11.60
2023-03-12T21:15:50.588Z,11.60
2023-03-12T21:18:18.480Z,11.70
2023-03-12T21:20:45.587Z,11.60
2023-03-12T21:23:12.481Z,11.70
2023-03-12T21:25:41.032Z,11.70
2023-03-12T21:28:09.479Z,11.70
2023-03-12T21:30:37.066Z,11.60
2023-03-12T21:33:04.093Z,11.50
2023-03-12T21:35:31.416Z,11.70
2023-03-12T21:37:59.019Z,11.50
2023-03-12T21:40:25.748Z,11.70
2023-03-12T21:42:52.506Z,11.70
2023-03-12T21:45:19.361Z,11.70
2023-03-12T21:47:46.146Z,11.90
2023-03-12T21:50:12.960Z,11.80
2023-03-12T21:52:43.357Z,11.90
2023-03-12T21:55:10.646Z,11.90
2023-03-12T21:57:37.378Z,11.80
2023-03-12T22:00:05.930Z,11.60
2023-03-12T22:02:32.809Z,11.70
2023-03-12T22:05:00.805Z,11.80
2023-03-12T22:07:30.118Z,11.80
2023-03-12T22:09:57.289Z,11.70
2023-03-12T22:12:24.416Z,11.90
2023-03-12T22:14:51.222Z,11.90
2023-03-12T22:17:18.262Z,11.90
2023-03-12T22:19:45.705Z,11.90
2023-03-12T22:22:12.452Z,11.90
2023-03-12T22:24:39.226Z,12.00
2023-03-12T22:27:07.541Z,12.10
2023-03-12T22:29:34.916Z,12.10
2023-03-12T22:32:02.093Z,12.20
2023-03-12T22:34:29.761Z,12.20
2023-03-12T22:36:56.547Z,12.30
2023-03-12T22:39:23.416Z,12.30
2023-03-12T22:41:50.731Z,12.30
2023-03-12T22:44:17.819Z,12.40
2023-03-12T22:46:44.619Z,12.40
2023-03-12T22:49:11.369Z,12.30
2023-03-12T22:51:38.133Z,12.40
2023-03-12T22:54:05.153Z,12.40
2023-03-12T22:56:31.866Z,12.50
2023-03-12T22:58:59.015Z,12.60
2023-03-12T23:01:25.928Z,12.50
2023-03-12T23:03:53.078Z,12.50
2023-03-12T23:06:22.867Z,12.70
2023-03-12T23:08:50.035Z,12.60
2023-03-12T23:11:17.779Z,12.50
2023-03-12T23:13:45.749Z,12.40
2023-03-12T23:16:16.093Z,12.40
2023-03-12T23:18:43.389Z,12.40
2023-03-12T23:21:13.408Z,12.50
2023-03-12T23:23:42.149Z,12.60
2023-03-12T23:26:21.611Z,12.60
2023-03-12T23:28:48.731Z,12.70
2023-03-12T23:31:16.366Z,12.60
2023-03-12T23:33:43.540Z,12.70
2023-03-12T23:36:16.147Z,12.70
2023-03-12T23:38:43.854Z,12.60
2023-03-12T23:41:16.708Z,12.60
2023-03-12T23:43:43.631Z,12.70
2023-03-12T23:46:11.706Z,12.70
2023-03-12T23:48:39.368Z,12.80
2023-03-12T23:51:09.056Z,12.80
2023-03-12T23:53:37.057Z,12.80
2023-03-12T23:56:06.527Z,12.70
2023-03-12T23:58:34.073Z,12.80
